METAR Data
IDs: Format: Raw Decoded Include TAF

Data at: 1444 UTC 25 Jan 2020

METAR for:KIAH (Houston/Bush Intl, TX, US)
Text:KIAH 251353Z 12005KT 10SM FEW090 SCT250 08/06 A3018 RMK AO2 SLP219 T00780056
Temperature: 7.8°C ( 46°F)
Dewpoint: 5.6°C ( 42°F) [RH = 86%]
Pressure (altimeter):30.18 inches Hg (1022.1 mb) [Sea level pressure: 1021.9 mb]
Winds:from the ESE (120 degrees) at 6 MPH (5 knots; 2.6 m/s)
Visibility:10 or more sm (16+ km)
Ceiling:at least 12,000 feet AGL
Clouds: few clouds at 9000 feet AGL, scattered clouds at 25000 feet AGL

METAR for:KHOU (Houston/Hobby Arpt, TX, US)
Text:KHOU 251353Z 09006KT 10SM SCT090 BKN250 11/07 A3017 RMK AO2 SLP220 T01110072
Temperature: 11.1°C ( 52°F)
Dewpoint: 7.2°C ( 45°F) [RH = 77%]
Pressure (altimeter):30.17 inches Hg (1021.8 mb) [Sea level pressure: 1022.0 mb]
Winds:from the E (90 degrees) at 7 MPH (6 knots; 3.1 m/s)
Visibility:10 or more sm (16+ km)
Ceiling:25000 feet AGL
Clouds: scattered clouds at 9000 feet AGL, broken clouds at 25000 feet AGL

METAR for:KGLS (Galveston/Scholes In, TX, US)
Text:KGLS 251352Z 08007KT 10SM CLR 14/10 A3018 RMK AO2 SLP220 T01440100
Temperature: 14.4°C ( 58°F)
Dewpoint: 10.0°C ( 50°F) [RH = 75%]
Pressure (altimeter):30.18 inches Hg (1022.1 mb) [Sea level pressure: 1022.0 mb]
Winds:from the E (80 degrees) at 8 MPH (7 knots; 3.6 m/s)
Visibility:10 or more sm (16+ km)
Ceiling:at least 12,000 feet AGL
Clouds:sky clear below 12,000 feet AGL

METAR for:KLVJ (Houston/Pearland Rgn, TX, US)
Text:KLVJ 251353Z AUTO 08004KT 7SM BKN090 11/08 A3018 RMK AO2 SLP220 T01060083
Temperature: 10.6°C ( 51°F)
Dewpoint: 8.3°C ( 47°F) [RH = 86%]
Pressure (altimeter):30.18 inches Hg (1022.1 mb) [Sea level pressure: 1022.0 mb]
Winds:from the E (80 degrees) at 5 MPH (4 knots; 2.1 m/s)
Visibility: 7 sm ( 11 km)
Ceiling:9000 feet AGL
Clouds: broken clouds at 9000 feet AGL
QC Flag:automated observation with no human augmentation

METAR for:KSGR (Houston/Sugar Land R, TX, US)
Text:KSGR 251353Z 11007KT 10SM CLR 11/08 A3016 RMK AO2 SLP213 T01110083
Temperature: 11.1°C ( 52°F)
Dewpoint: 8.3°C ( 47°F) [RH = 83%]
Pressure (altimeter):30.16 inches Hg (1021.4 mb) [Sea level pressure: 1021.3 mb]
Winds:from the ESE (110 degrees) at 8 MPH (7 knots; 3.6 m/s)
Visibility:10 or more sm (16+ km)
Ceiling:at least 12,000 feet AGL
Clouds:sky clear below 12,000 feet AGL

METAR for:KDWH (Houston/Hooks Mem, TX, US)
Text:KDWH 251353Z 00000KT 9SM CLR 06/04 A3018 RMK AO2 SLP218 T00560044
Temperature: 5.6°C ( 42°F)
Dewpoint: 4.4°C ( 40°F) [RH = 92%]
Pressure (altimeter):30.18 inches Hg (1022.1 mb) [Sea level pressure: 1021.8 mb]
Winds:calm
Visibility: 9 sm ( 14 km)
Ceiling:at least 12,000 feet AGL
Clouds:sky clear below 12,000 feet AGL

METAR for:KCLL (College Station/East, TX, US)
Text:KCLL 251353Z 11003KT 10SM FEW070 08/03 A3015 RMK AO2 SLP210 T00780033
Temperature: 7.8°C ( 46°F)
Dewpoint: 3.3°C ( 38°F) [RH = 73%]
Pressure (altimeter):30.15 inches Hg (1021.1 mb) [Sea level pressure: 1021.0 mb]
Winds:from the ESE (110 degrees) at 3 MPH (3 knots; 1.5 m/s)
Visibility:10 or more sm (16+ km)
Ceiling:at least 12,000 feet AGL
Clouds: few clouds at 7000 feet AGL

METAR for:KUTS (Huntsville Muni, TX, US)
Text:KUTS 251353Z AUTO VRB03KT 10SM CLR 09/01 A3017 RMK AO2 SLP214 T00940006
Temperature: 9.4°C ( 49°F)
Dewpoint: 0.6°C ( 33°F) [RH = 54%]
Pressure (altimeter):30.17 inches Hg (1021.8 mb) [Sea level pressure: 1021.4 mb]
Winds:variable direction winds at 3 MPH (3 knots; 1.5 m/s)
Visibility:10 or more sm (16+ km)
Ceiling:at least 12,000 feet AGL
Clouds:sky clear below 12,000 feet AGL
QC Flag:automated observation with no human augmentation

METAR for:KCXO (Conroe/Executive Arp, TX, US)
Text:KCXO 251353Z 00000KT 10SM CLR 03/02 A3019 RMK AO2 SLP222 T00280017
Temperature: 2.8°C ( 37°F)
Dewpoint: 1.7°C ( 35°F) [RH = 92%]
Pressure (altimeter):30.19 inches Hg (1022.4 mb) [Sea level pressure: 1022.2 mb]
Winds:calm
Visibility:10 or more sm (16+ km)
Ceiling:at least 12,000 feet AGL
Clouds:sky clear below 12,000 feet AGL

METAR for:KLBX (Angleton/Texas Gulf, TX, US)
Text:KLBX 251353Z AUTO 09004KT 10SM CLR 12/11 A3016 RMK AO2 SLP213 T01170106
Temperature: 11.7°C ( 53°F)
Dewpoint: 10.6°C ( 51°F) [RH = 93%]
Pressure (altimeter):30.16 inches Hg (1021.4 mb) [Sea level pressure: 1021.3 mb]
Winds:from the E (90 degrees) at 5 MPH (4 knots; 2.1 m/s)
Visibility:10 or more sm (16+ km)
Ceiling:at least 12,000 feet AGL
Clouds:sky clear below 12,000 feet AGL
QC Flag:automated observation with no human augmentation

METAR for:KPSX (Palacios Muni, TX, US)
Text:KPSX 251353Z AUTO 10007KT 10SM SCT075 13/11 A3013 RMK AO2 SLP204 T01330111
Temperature: 13.3°C ( 56°F)
Dewpoint: 11.1°C ( 52°F) [RH = 87%]
Pressure (altimeter):30.13 inches Hg (1020.4 mb) [Sea level pressure: 1020.4 mb]
Winds:from the E (100 degrees) at 8 MPH (7 knots; 3.6 m/s)
Visibility:10 or more sm (16+ km)
Ceiling:at least 12,000 feet AGL
Clouds: scattered clouds at 7500 feet AGL
QC Flag:automated observation with no human augmentation